Mill Village, Pennsylvania
Current Conditions -  °F | °C
As of 5:51 AM on Sunday 26 Oct 2014 (Local Time) from KERI Reporting Station
Few Clouds Few Clouds  
Wind Chill: 12°   Ceiling: Unl
Heat Index: 12°   Visibility: 10mi
Dew Point:   Wind: 12mph
Humidity: 45%   Direction: 300°WNW
Pressure: 29.78"   Gusts: 23mph
Location:  41.88°N, 79.97°W
Report Text: KERI 260951Z 30010G20KT 10SM FEW050 12/01 A2978 RMK AO2 SLP084 T01220006
Loading
Personal Weather Stations






























Interactive Weather Map
Tropical Storm Tracking
New forecast layout! Learn more

10-Day Weather Forecast

Advertisements
Track Severe Weather on mobile